sensor_id;sensor_type;location;lat;lon;timestamp;temperature;humidity
66598;DHT22;57424;53.128;6.406;2023-04-25T00:00:09;18.70;49.90
66598;DHT22;57424;53.128;6.406;2023-04-25T00:02:35;18.70;49.90
66598;DHT22;57424;53.128;6.406;2023-04-25T00:05:02;18.70;50.00
66598;DHT22;57424;53.128;6.406;2023-04-25T00:07:28;18.70;50.00
66598;DHT22;57424;53.128;6.406;2023-04-25T00:09:54;18.60;49.90
66598;DHT22;57424;53.128;6.406;2023-04-25T00:12:19;18.60;50.00
66598;DHT22;57424;53.128;6.406;2023-04-25T00:14:47;18.60;50.00
66598;DHT22;57424;53.128;6.406;2023-04-25T00:17:15;18.60;50.00
66598;DHT22;57424;53.128;6.406;2023-04-25T00:19:41;18.60;50.00
66598;DHT22;57424;53.128;6.406;2023-04-25T00:22:07;18.60;50.10
66598;DHT22;57424;53.128;6.406;2023-04-25T00:24:33;18.60;50.00
66598;DHT22;57424;53.128;6.406;2023-04-25T00:26:58;18.60;50.00
66598;DHT22;57424;53.128;6.406;2023-04-25T00:29:24;18.60;50.10
66598;DHT22;57424;53.128;6.406;2023-04-25T00:31:49;18.60;50.10
66598;DHT22;57424;53.128;6.406;2023-04-25T00:34:15;18.60;50.10
66598;DHT22;57424;53.128;6.406;2023-04-25T00:36:40;18.60;50.10
66598;DHT22;57424;53.128;6.406;2023-04-25T00:39:06;18.50;50.00
66598;DHT22;57424;53.128;6.406;2023-04-25T00:41:32;18.50;50.00
66598;DHT22;57424;53.128;6.406;2023-04-25T00:43:59;18.50;50.00
66598;DHT22;57424;53.128;6.406;2023-04-25T00:46:26;18.50;50.00
66598;DHT22;57424;53.128;6.406;2023-04-25T00:48:51;18.50;50.00
66598;DHT22;57424;53.128;6.406;2023-04-25T00:51:20;18.50;50.10
66598;DHT22;57424;53.128;6.406;2023-04-25T00:53:46;18.50;50.00
66598;DHT22;57424;53.128;6.406;2023-04-25T00:56:13;18.50;50.10
66598;DHT22;57424;53.128;6.406;2023-04-25T00:58:40;18.40;50.00
66598;DHT22;57424;53.128;6.406;2023-04-25T01:01:06;18.40;50.00
66598;DHT22;57424;53.128;6.406;2023-04-25T01:03:38;18.40;50.00
66598;DHT22;57424;53.128;6.406;2023-04-25T01:06:07;18.40;50.00
66598;DHT22;57424;53.128;6.406;2023-04-25T01:08:34;18.40;50.00
66598;DHT22;57424;53.128;6.406;2023-04-25T01:10:59;18.40;50.10
66598;DHT22;57424;53.128;6.406;2023-04-25T01:13:25;18.40;50.10
66598;DHT22;57424;53.128;6.406;2023-04-25T01:15:51;18.40;50.00
66598;DHT22;57424;53.128;6.406;2023-04-25T01:18:16;18.40;50.00
66598;DHT22;57424;53.128;6.406;2023-04-25T01:20:43;18.40;50.00
66598;DHT22;57424;53.128;6.406;2023-04-25T01:23:09;18.40;50.00
66598;DHT22;57424;53.128;6.406;2023-04-25T01:25:36;18.40;50.10
66598;DHT22;57424;53.128;6.406;2023-04-25T01:28:02;18.40;50.00
66598;DHT22;57424;53.128;6.406;2023-04-25T01:30:27;18.40;50.00
66598;DHT22;57424;53.128;6.406;2023-04-25T01:32:55;18.40;50.00
66598;DHT22;57424;53.128;6.406;2023-04-25T01:35:21;18.40;50.10
66598;DHT22;57424;53.128;6.406;2023-04-25T01:37:49;18.30;50.00
66598;DHT22;57424;53.128;6.406;2023-04-25T01:40:15;18.30;50.00
66598;DHT22;57424;53.128;6.406;2023-04-25T01:42:43;18.30;50.00
66598;DHT22;57424;53.128;6.406;2023-04-25T01:45:10;18.30;50.00
66598;DHT22;57424;53.128;6.406;2023-04-25T01:47:36;18.30;50.00
66598;DHT22;57424;53.128;6.406;2023-04-25T01:50:06;18.30;50.00
66598;DHT22;57424;53.128;6.406;2023-04-25T01:52:32;18.30;50.00
66598;DHT22;57424;53.128;6.406;2023-04-25T01:55:00;18.30;50.00
66598;DHT22;57424;53.128;6.406;2023-04-25T01:57:26;18.30;50.00
66598;DHT22;57424;53.128;6.406;2023-04-25T01:59:53;18.30;49.90
66598;DHT22;57424;53.128;6.406;2023-04-25T02:02:20;18.20;50.00
66598;DHT22;57424;53.128;6.406;2023-04-25T02:04:45;18.20;49.90
66598;DHT22;57424;53.128;6.406;2023-04-25T02:07:11;18.30;50.00
66598;DHT22;57424;53.128;6.406;2023-04-25T02:09:36;18.30;50.00
66598;DHT22;57424;53.128;6.406;2023-04-25T02:12:02;18.20;49.90
66598;DHT22;57424;53.128;6.406;2023-04-25T02:14:28;18.20;49.90
66598;DHT22;57424;53.128;6.406;2023-04-25T02:16:54;18.20;49.90
66598;DHT22;57424;53.128;6.406;2023-04-25T02:19:19;18.20;49.90
66598;DHT22;57424;53.128;6.406;2023-04-25T02:21:45;18.20;49.90
66598;DHT22;57424;53.128;6.406;2023-04-25T02:24:11;18.20;49.90
66598;DHT22;57424;53.128;6.406;2023-04-25T02:26:36;18.20;49.90
66598;DHT22;57424;53.128;6.406;2023-04-25T02:29:02;18.20;49.90
66598;DHT22;57424;53.128;6.406;2023-04-25T02:31:27;18.20;49.90
66598;DHT22;57424;53.128;6.406;2023-04-25T02:33:53;18.20;49.90
66598;DHT22;57424;53.128;6.406;2023-04-25T02:36:18;18.20;49.80
66598;DHT22;57424;53.128;6.406;2023-04-25T02:38:44;18.20;49.90
66598;DHT22;57424;53.128;6.406;2023-04-25T02:41:09;18.20;49.80
66598;DHT22;57424;53.128;6.406;2023-04-25T02:43:35;18.20;49.80
66598;DHT22;57424;53.128;6.406;2023-04-25T02:46:00;18.10;49.80
66598;DHT22;57424;53.128;6.406;2023-04-25T02:48:26;18.10;49.70
66598;DHT22;57424;53.128;6.406;2023-04-25T02:50:52;18.10;49.70
66598;DHT22;57424;53.128;6.406;2023-04-25T02:53:17;18.10;49.70
66598;DHT22;57424;53.128;6.406;2023-04-25T02:55:43;18.10;49.70
66598;DHT22;57424;53.128;6.406;2023-04-25T02:58:08;18.10;49.70
66598;DHT22;57424;53.128;6.406;2023-04-25T03:00:34;18.10;49.70
66598;DHT22;57424;53.128;6.406;2023-04-25T03:02:59;18.10;49.70
66598;DHT22;57424;53.128;6.406;2023-04-25T03:05:26;18.10;49.70
66598;DHT22;57424;53.128;6.406;2023-04-25T03:07:51;18.10;49.70
66598;DHT22;57424;53.128;6.406;2023-04-25T03:10:17;18.00;49.60
66598;DHT22;57424;53.128;6.406;2023-04-25T03:12:42;18.00;49.60
66598;DHT22;57424;53.128;6.406;2023-04-25T03:15:08;18.10;49.70
66598;DHT22;57424;53.128;6.406;2023-04-25T03:17:34;18.10;49.70
66598;DHT22;57424;53.128;6.406;2023-04-25T03:19:59;18.00;49.60
66598;DHT22;57424;53.128;6.406;2023-04-25T03:22:25;18.00;49.60
66598;DHT22;57424;53.128;6.406;2023-04-25T03:24:51;18.00;49.60
66598;DHT22;57424;53.128;6.406;2023-04-25T03:27:17;18.00;49.60
66598;DHT22;57424;53.128;6.406;2023-04-25T03:29:42;18.00;49.60
66598;DHT22;57424;53.128;6.406;2023-04-25T03:32:08;18.00;49.60
66598;DHT22;57424;53.128;6.406;2023-04-25T03:34:34;18.00;49.60
66598;DHT22;57424;53.128;6.406;2023-04-25T03:37:00;18.00;49.60
66598;DHT22;57424;53.128;6.406;2023-04-25T03:39:26;18.00;49.60
66598;DHT22;57424;53.128;6.406;2023-04-25T03:41:51;18.00;49.60
66598;DHT22;57424;53.128;6.406;2023-04-25T03:44:17;18.00;49.60
66598;DHT22;57424;53.128;6.406;2023-04-25T03:46:43;17.90;49.50
66598;DHT22;57424;53.128;6.406;2023-04-25T03:49:09;18.00;49.60
66598;DHT22;57424;53.128;6.406;2023-04-25T03:51:34;17.90;49.50
66598;DHT22;57424;53.128;6.406;2023-04-25T03:54:00;17.90;49.50
66598;DHT22;57424;53.128;6.406;2023-04-25T03:56:26;17.90;49.50
66598;DHT22;57424;53.128;6.406;2023-04-25T03:58:51;17.90;49.50
66598;DHT22;57424;53.128;6.406;2023-04-25T04:01:17;17.90;49.50
66598;DHT22;57424;53.128;6.406;2023-04-25T04:03:42;17.90;49.50
66598;DHT22;57424;53.128;6.406;2023-04-25T04:06:08;17.90;49.40
66598;DHT22;57424;53.128;6.406;2023-04-25T04:08:34;17.90;49.40
66598;DHT22;57424;53.128;6.406;2023-04-25T04:11:00;17.90;49.40
66598;DHT22;57424;53.128;6.406;2023-04-25T04:13:27;17.90;49.40
66598;DHT22;57424;53.128;6.406;2023-04-25T04:15:53;17.90;49.40
66598;DHT22;57424;53.128;6.406;2023-04-25T04:18:18;17.90;49.40
66598;DHT22;57424;53.128;6.406;2023-04-25T04:20:44;17.90;49.40
66598;DHT22;57424;53.128;6.406;2023-04-25T04:23:09;17.90;49.40
66598;DHT22;57424;53.128;6.406;2023-04-25T04:25:36;17.90;49.40
66598;DHT22;57424;53.128;6.406;2023-04-25T04:28:02;17.90;49.40
66598;DHT22;57424;53.128;6.406;2023-04-25T04:30:27;17.80;49.30
66598;DHT22;57424;53.128;6.406;2023-04-25T04:32:55;17.80;49.30
66598;DHT22;57424;53.128;6.406;2023-04-25T04:35:21;17.80;49.30
66598;DHT22;57424;53.128;6.406;2023-04-25T04:37:47;17.90;49.40
66598;DHT22;57424;53.128;6.406;2023-04-25T04:40:14;17.80;49.20
66598;DHT22;57424;53.128;6.406;2023-04-25T04:42:43;17.80;49.20
66598;DHT22;57424;53.128;6.406;2023-04-25T04:45:09;17.80;49.30
66598;DHT22;57424;53.128;6.406;2023-04-25T04:47:35;17.80;49.20
66598;DHT22;57424;53.128;6.406;2023-04-25T04:50:02;17.80;49.20
66598;DHT22;57424;53.128;6.406;2023-04-25T04:52:28;17.80;49.20
66598;DHT22;57424;53.128;6.406;2023-04-25T04:54:53;17.80;49.30
66598;DHT22;57424;53.128;6.406;2023-04-25T04:57:19;17.80;49.30
66598;DHT22;57424;53.128;6.406;2023-04-25T04:59:44;17.80;49.40
66598;DHT22;57424;53.128;6.406;2023-04-25T05:02:11;17.80;49.40
66598;DHT22;57424;53.128;6.406;2023-04-25T05:04:36;17.80;49.40
66598;DHT22;57424;53.128;6.406;2023-04-25T05:07:02;17.80;49.40
66598;DHT22;57424;53.128;6.406;2023-04-25T05:09:27;17.80;49.50
66598;DHT22;57424;53.128;6.406;2023-04-25T05:11:53;17.80;49.50
66598;DHT22;57424;53.128;6.406;2023-04-25T05:14:19;17.80;49.60
66598;DHT22;57424;53.128;6.406;2023-04-25T05:16:44;17.80;49.50
66598;DHT22;57424;53.128;6.406;2023-04-25T05:19:10;17.80;49.60
66598;DHT22;57424;53.128;6.406;2023-04-25T05:21:35;17.80;49.60
66598;DHT22;57424;53.128;6.406;2023-04-25T05:24:01;17.80;49.60
66598;DHT22;57424;53.128;6.406;2023-04-25T05:26:27;17.80;49.60
66598;DHT22;57424;53.128;6.406;2023-04-25T05:28:57;17.80;49.60
66598;DHT22;57424;53.128;6.406;2023-04-25T05:31:22;17.80;49.60
66598;DHT22;57424;53.128;6.406;2023-04-25T05:33:48;17.90;49.70
66598;DHT22;57424;53.128;6.406;2023-04-25T05:36:13;17.90;49.60
66598;DHT22;57424;53.128;6.406;2023-04-25T05:38:39;17.90;49.60
66598;DHT22;57424;53.128;6.406;2023-04-25T05:41:05;17.90;49.60
66598;DHT22;57424;53.128;6.406;2023-04-25T05:43:30;17.90;49.70
66598;DHT22;57424;53.128;6.406;2023-04-25T05:45:56;17.90;49.60
66598;DHT22;57424;53.128;6.406;2023-04-25T05:48:21;17.90;49.80
66598;DHT22;57424;53.128;6.406;2023-04-25T05:50:47;17.90;49.60
66598;DHT22;57424;53.128;6.406;2023-04-25T05:53:13;17.90;49.60
66598;DHT22;57424;53.128;6.406;2023-04-25T05:55:38;18.00;49.70
66598;DHT22;57424;53.128;6.406;2023-04-25T05:58:05;17.90;49.70
66598;DHT22;57424;53.128;6.406;2023-04-25T06:00:32;18.00;49.70
66598;DHT22;57424;53.128;6.406;2023-04-25T06:02:57;18.00;49.80
66598;DHT22;57424;53.128;6.406;2023-04-25T06:05:23;18.00;49.70
66598;DHT22;57424;53.128;6.406;2023-04-25T06:07:48;18.00;49.70
66598;DHT22;57424;53.128;6.406;2023-04-25T06:10:14;18.00;49.70
66598;DHT22;57424;53.128;6.406;2023-04-25T06:12:40;18.00;49.70
66598;DHT22;57424;53.128;6.406;2023-04-25T06:15:06;18.00;49.60
66598;DHT22;57424;53.128;6.406;2023-04-25T06:17:32;18.00;49.70
66598;DHT22;57424;53.128;6.406;2023-04-25T06:19:57;18.10;49.70
66598;DHT22;57424;53.128;6.406;2023-04-25T06:22:23;18.10;49.70
66598;DHT22;57424;53.128;6.406;2023-04-25T06:24:48;18.10;50.10
66598;DHT22;57424;53.128;6.406;2023-04-25T06:27:14;18.10;49.70
66598;DHT22;57424;53.128;6.406;2023-04-25T06:29:40;18.10;49.80
66598;DHT22;57424;53.128;6.406;2023-04-25T06:32:05;18.20;50.10
66598;DHT22;57424;53.128;6.406;2023-04-25T06:34:31;18.20;50.30
66598;DHT22;57424;53.128;6.406;2023-04-25T06:36:56;18.20;50.40
66598;DHT22;57424;53.128;6.406;2023-04-25T06:39:22;18.20;50.40
66598;DHT22;57424;53.128;6.406;2023-04-25T06:41:49;18.20;50.40
66598;DHT22;57424;53.128;6.406;2023-04-25T06:44:14;18.30;50.40
66598;DHT22;57424;53.128;6.406;2023-04-25T06:46:40;18.30;50.40
66598;DHT22;57424;53.128;6.406;2023-04-25T06:49:06;18.30;50.30
66598;DHT22;57424;53.128;6.406;2023-04-25T06:51:31;18.30;50.30
66598;DHT22;57424;53.128;6.406;2023-04-25T06:53:57;18.30;50.20
66598;DHT22;57424;53.128;6.406;2023-04-25T06:56:23;18.40;50.40
66598;DHT22;57424;53.128;6.406;2023-04-25T06:58:49;18.40;50.40
66598;DHT22;57424;53.128;6.406;2023-04-25T07:01:14;18.40;50.30
66598;DHT22;57424;53.128;6.406;2023-04-25T07:03:40;18.40;50.40
66598;DHT22;57424;53.128;6.406;2023-04-25T07:06:06;18.50;50.40
66598;DHT22;57424;53.128;6.406;2023-04-25T07:08:31;18.50;50.40
66598;DHT22;57424;53.128;6.406;2023-04-25T07:10:57;18.50;50.30
66598;DHT22;57424;53.128;6.406;2023-04-25T07:13:22;18.50;50.20
66598;DHT22;57424;53.128;6.406;2023-04-25T07:15:48;18.50;50.20
66598;DHT22;57424;53.128;6.406;2023-04-25T07:18:14;18.60;50.30
66598;DHT22;57424;53.128;6.406;2023-04-25T07:20:39;18.60;50.30
66598;DHT22;57424;53.128;6.406;2023-04-25T07:23:05;18.60;50.20
66598;DHT22;57424;53.128;6.406;2023-04-25T07:25:31;18.60;50.30
66598;DHT22;57424;53.128;6.406;2023-04-25T07:27:56;18.70;50.30
66598;DHT22;57424;53.128;6.406;2023-04-25T07:30:22;18.70;50.20
66598;DHT22;57424;53.128;6.406;2023-04-25T07:32:49;18.80;50.20
66598;DHT22;57424;53.128;6.406;2023-04-25T07:35:15;18.90;50.00
66598;DHT22;57424;53.128;6.406;2023-04-25T07:37:41;19.00;49.90
66598;DHT22;57424;53.128;6.406;2023-04-25T07:40:07;19.10;49.80
66598;DHT22;57424;53.128;6.406;2023-04-25T07:42:34;19.10;49.60
66598;DHT22;57424;53.128;6.406;2023-04-25T07:45:00;19.20;49.50
66598;DHT22;57424;53.128;6.406;2023-04-25T07:47:26;19.30;49.30
66598;DHT22;57424;53.128;6.406;2023-04-25T07:49:52;19.40;49.20
66598;DHT22;57424;53.128;6.406;2023-04-25T07:52:17;19.50;49.00
66598;DHT22;57424;53.128;6.406;2023-04-25T07:54:43;19.50;48.90
66598;DHT22;57424;53.128;6.406;2023-04-25T07:57:09;19.60;48.80
66598;DHT22;57424;53.128;6.406;2023-04-25T07:59:34;19.60;48.50
66598;DHT22;57424;53.128;6.406;2023-04-25T08:02:00;19.70;48.40
66598;DHT22;57424;53.128;6.406;2023-04-25T08:04:26;19.80;48.40
66598;DHT22;57424;53.128;6.406;2023-04-25T08:06:52;19.80;48.20
66598;DHT22;57424;53.128;6.406;2023-04-25T08:09:19;19.90;48.10
66598;DHT22;57424;53.128;6.406;2023-04-25T08:11:45;19.90;47.90
66598;DHT22;57424;53.128;6.406;2023-04-25T08:14:12;20.00;47.80
66598;DHT22;57424;53.128;6.406;2023-04-25T08:16:37;20.10;47.70
66598;DHT22;57424;53.128;6.406;2023-04-25T08:19:03;20.10;47.60
66598;DHT22;57424;53.128;6.406;2023-04-25T08:21:30;20.20;47.50
66598;DHT22;57424;53.128;6.406;2023-04-25T08:23:56;20.20;47.40
66598;DHT22;57424;53.128;6.406;2023-04-25T08:26:23;20.30;47.40
66598;DHT22;57424;53.128;6.406;2023-04-25T08:28:50;20.30;47.30
66598;DHT22;57424;53.128;6.406;2023-04-25T08:31:16;20.30;47.30
66598;DHT22;57424;53.128;6.406;2023-04-25T08:33:42;20.30;47.30
66598;DHT22;57424;53.128;6.406;2023-04-25T08:36:07;20.40;47.20
66598;DHT22;57424;53.128;6.406;2023-04-25T08:38:33;20.40;47.20
66598;DHT22;57424;53.128;6.406;2023-04-25T08:41:00;20.40;47.10
66598;DHT22;57424;53.128;6.406;2023-04-25T08:43:26;20.50;47.00
66598;DHT22;57424;53.128;6.406;2023-04-25T08:45:54;20.50;46.90
66598;DHT22;57424;53.128;6.406;2023-04-25T08:48:24;20.50;46.80
66598;DHT22;57424;53.128;6.406;2023-04-25T08:50:53;20.50;46.70
66598;DHT22;57424;53.128;6.406;2023-04-25T08:53:25;20.60;46.70
66598;DHT22;57424;53.128;6.406;2023-04-25T08:55:52;20.60;46.70
66598;DHT22;57424;53.128;6.406;2023-04-25T08:58:18;20.60;46.70
66598;DHT22;57424;53.128;6.406;2023-04-25T09:00:46;20.60;46.70
66598;DHT22;57424;53.128;6.406;2023-04-25T09:03:12;20.70;46.80
66598;DHT22;57424;53.128;6.406;2023-04-25T09:05:40;20.70;46.90
66598;DHT22;57424;53.128;6.406;2023-04-25T09:08:06;20.70;46.80
66598;DHT22;57424;53.128;6.406;2023-04-25T09:10:31;20.70;46.80
66598;DHT22;57424;53.128;6.406;2023-04-25T09:15:32;20.70;46.70
66598;DHT22;57424;53.128;6.406;2023-04-25T09:17:59;20.80;46.80
66598;DHT22;57424;53.128;6.406;2023-04-25T09:20:25;20.80;46.70
66598;DHT22;57424;53.128;6.406;2023-04-25T09:23:04;20.80;46.70
66598;DHT22;57424;53.128;6.406;2023-04-25T09:25:37;20.80;46.70
66598;DHT22;57424;53.128;6.406;2023-04-25T09:28:05;20.80;46.60
66598;DHT22;57424;53.128;6.406;2023-04-25T09:30:33;20.90;46.60
66598;DHT22;57424;53.128;6.406;2023-04-25T09:33:09;20.90;46.60
66598;DHT22;57424;53.128;6.406;2023-04-25T09:35:39;20.90;46.60
66598;DHT22;57424;53.128;6.406;2023-04-25T09:38:12;20.90;46.50
66598;DHT22;57424;53.128;6.406;2023-04-25T09:40:46;20.90;46.50
66598;DHT22;57424;53.128;6.406;2023-04-25T09:43:20;20.90;46.50
66598;DHT22;57424;53.128;6.406;2023-04-25T09:45:49;21.00;46.50
66598;DHT22;57424;53.128;6.406;2023-04-25T09:48:21;21.00;46.50
66598;DHT22;57424;53.128;6.406;2023-04-25T09:53:35;21.00;46.60
66598;DHT22;57424;53.128;6.406;2023-04-25T09:56:03;21.00;46.60
66598;DHT22;57424;53.128;6.406;2023-04-25T09:58:30;21.00;46.60
66598;DHT22;57424;53.128;6.406;2023-04-25T10:01:03;21.00;46.60
66598;DHT22;57424;53.128;6.406;2023-04-25T10:03:33;21.00;46.50
66598;DHT22;57424;53.128;6.406;2023-04-25T10:06:06;20.90;46.50
66598;DHT22;57424;53.128;6.406;2023-04-25T10:08:34;20.90;46.50
66598;DHT22;57424;53.128;6.406;2023-04-25T10:11:01;21.00;46.50
66598;DHT22;57424;53.128;6.406;2023-04-25T10:13:28;21.00;46.60
66598;DHT22;57424;53.128;6.406;2023-04-25T10:15:54;20.90;46.60
66598;DHT22;57424;53.128;6.406;2023-04-25T10:18:21;20.90;46.50
66598;DHT22;57424;53.128;6.406;2023-04-25T10:20:46;21.00;46.60
66598;DHT22;57424;53.128;6.406;2023-04-25T10:23:15;20.90;46.50
66598;DHT22;57424;53.128;6.406;2023-04-25T10:25:42;21.00;46.80
66598;DHT22;57424;53.128;6.406;2023-04-25T10:28:08;20.90;47.00
66598;DHT22;57424;53.128;6.406;2023-04-25T10:30:34;20.90;47.20
66598;DHT22;57424;53.128;6.406;2023-04-25T10:33:00;21.00;47.60
66598;DHT22;57424;53.128;6.406;2023-04-25T10:35:27;21.00;47.70
66598;DHT22;57424;53.128;6.406;2023-04-25T10:37:58;21.00;47.90
66598;DHT22;57424;53.128;6.406;2023-04-25T10:40:23;21.00;48.20
66598;DHT22;57424;53.128;6.406;2023-04-25T10:42:52;21.00;48.50
66598;DHT22;57424;53.128;6.406;2023-04-25T10:45:18;21.00;48.60
66598;DHT22;57424;53.128;6.406;2023-04-25T10:47:45;21.00;48.80
66598;DHT22;57424;53.128;6.406;2023-04-25T10:50:11;21.00;48.90
66598;DHT22;57424;53.128;6.406;2023-04-25T10:52:39;21.00;49.10
66598;DHT22;57424;53.128;6.406;2023-04-25T10:55:06;21.00;49.10
66598;DHT22;57424;53.128;6.406;2023-04-25T10:57:42;21.00;49.10
66598;DHT22;57424;53.128;6.406;2023-04-25T11:00:10;21.00;49.10
66598;DHT22;57424;53.128;6.406;2023-04-25T11:02:40;20.90;49.00
66598;DHT22;57424;53.128;6.406;2023-04-25T11:05:06;21.00;49.10
66598;DHT22;57424;53.128;6.406;2023-04-25T11:07:51;20.90;49.00
66598;DHT22;57424;53.128;6.406;2023-04-25T11:10:18;20.90;49.00
66598;DHT22;57424;53.128;6.406;2023-04-25T11:12:45;20.90;49.00
66598;DHT22;57424;53.128;6.406;2023-04-25T11:15:11;20.90;49.00
66598;DHT22;57424;53.128;6.406;2023-04-25T11:17:37;20.90;49.00
66598;DHT22;57424;53.128;6.406;2023-04-25T11:20:05;20.80;48.90
66598;DHT22;57424;53.128;6.406;2023-04-25T11:22:37;20.80;48.90
66598;DHT22;57424;53.128;6.406;2023-04-25T11:25:11;20.80;49.00
66598;DHT22;57424;53.128;6.406;2023-04-25T11:27:59;20.80;49.00
66598;DHT22;57424;53.128;6.406;2023-04-25T11:30:25;20.80;49.10
66598;DHT22;57424;53.128;6.406;2023-04-25T11:32:51;20.80;49.10
66598;DHT22;57424;53.128;6.406;2023-04-25T11:35:18;20.80;49.10
66598;DHT22;57424;53.128;6.406;2023-04-25T11:37:44;20.80;49.00
66598;DHT22;57424;53.128;6.406;2023-04-25T11:40:11;20.80;49.00
66598;DHT22;57424;53.128;6.406;2023-04-25T11:42:43;20.80;49.00
66598;DHT22;57424;53.128;6.406;2023-04-25T11:45:09;20.80;48.90
66598;DHT22;57424;53.128;6.406;2023-04-25T11:47:36;20.80;48.80
66598;DHT22;57424;53.128;6.406;2023-04-25T11:50:03;20.80;48.70
66598;DHT22;57424;53.128;6.406;2023-04-25T11:52:39;20.80;48.70
66598;DHT22;57424;53.128;6.406;2023-04-25T11:55:19;20.80;48.60
66598;DHT22;57424;53.128;6.406;2023-04-25T11:57:47;20.80;48.60
66598;DHT22;57424;53.128;6.406;2023-04-25T12:00:16;20.80;48.50
66598;DHT22;57424;53.128;6.406;2023-04-25T12:03:08;20.80;48.40
66598;DHT22;57424;53.128;6.406;2023-04-25T12:05:34;20.80;48.30
66598;DHT22;57424;53.128;6.406;2023-04-25T12:08:13;20.80;48.30
66598;DHT22;57424;53.128;6.406;2023-04-25T12:10:40;20.80;48.20
66598;DHT22;57424;53.128;6.406;2023-04-25T12:13:20;20.80;48.10
66598;DHT22;57424;53.128;6.406;2023-04-25T12:15:46;20.80;48.10
66598;DHT22;57424;53.128;6.406;2023-04-25T12:18:11;20.80;48.10
66598;DHT22;57424;53.128;6.406;2023-04-25T12:20:37;20.90;48.10
66598;DHT22;57424;53.128;6.406;2023-04-25T12:23:06;20.80;48.00
66598;DHT22;57424;53.128;6.406;2023-04-25T12:25:40;20.80;48.00
66598;DHT22;57424;53.128;6.406;2023-04-25T12:28:20;20.80;47.90
66598;DHT22;57424;53.128;6.406;2023-04-25T12:33:26;20.80;47.80
66598;DHT22;57424;53.128;6.406;2023-04-25T12:35:53;20.80;47.80
66598;DHT22;57424;53.128;6.406;2023-04-25T12:38:29;20.80;47.70
66598;DHT22;57424;53.128;6.406;2023-04-25T12:40:56;20.80;47.70
66598;DHT22;57424;53.128;6.406;2023-04-25T12:43:22;20.80;47.70
66598;DHT22;57424;53.128;6.406;2023-04-25T12:45:49;20.80;47.60
66598;DHT22;57424;53.128;6.406;2023-04-25T12:48:18;20.80;47.50
66598;DHT22;57424;53.128;6.406;2023-04-25T12:50:43;20.80;47.50
66598;DHT22;57424;53.128;6.406;2023-04-25T12:53:09;20.80;47.40
66598;DHT22;57424;53.128;6.406;2023-04-25T12:55:35;20.80;47.40
66598;DHT22;57424;53.128;6.406;2023-04-25T12:58:01;20.80;47.30
66598;DHT22;57424;53.128;6.406;2023-04-25T13:00:27;20.80;47.30
66598;DHT22;57424;53.128;6.406;2023-04-25T13:02:52;20.80;47.20
66598;DHT22;57424;53.128;6.406;2023-04-25T13:05:18;20.80;47.20
66598;DHT22;57424;53.128;6.406;2023-04-25T13:07:43;20.70;47.10
66598;DHT22;57424;53.128;6.406;2023-04-25T13:10:09;20.70;47.10
66598;DHT22;57424;53.128;6.406;2023-04-25T13:12:35;20.70;47.10
66598;DHT22;57424;53.128;6.406;2023-04-25T13:15:01;20.70;47.20
66598;DHT22;57424;53.128;6.406;2023-04-25T13:17:27;20.70;47.20
66598;DHT22;57424;53.128;6.406;2023-04-25T13:19:52;20.60;47.20
66598;DHT22;57424;53.128;6.406;2023-04-25T13:22:18;20.60;47.20
66598;DHT22;57424;53.128;6.406;2023-04-25T13:24:45;20.50;47.20
66598;DHT22;57424;53.128;6.406;2023-04-25T13:27:11;20.50;47.30
66598;DHT22;57424;53.128;6.406;2023-04-25T13:29:36;20.50;47.30
66598;DHT22;57424;53.128;6.406;2023-04-25T13:32:03;20.40;47.30
66598;DHT22;57424;53.128;6.406;2023-04-25T13:34:29;20.40;47.40
66598;DHT22;57424;53.128;6.406;2023-04-25T13:36:56;20.40;47.40
66598;DHT22;57424;53.128;6.406;2023-04-25T13:39:21;20.40;47.60
66598;DHT22;57424;53.128;6.406;2023-04-25T13:41:47;20.30;47.60
66598;DHT22;57424;53.128;6.406;2023-04-25T13:44:12;20.30;47.60
66598;DHT22;57424;53.128;6.406;2023-04-25T13:46:38;20.30;47.70
66598;DHT22;57424;53.128;6.406;2023-04-25T13:49:04;20.20;47.60
66598;DHT22;57424;53.128;6.406;2023-04-25T13:51:30;20.20;48.40
66598;DHT22;57424;53.128;6.406;2023-04-25T13:53:56;20.20;47.80
66598;DHT22;57424;53.128;6.406;2023-04-25T13:56:22;20.10;47.80
66598;DHT22;57424;53.128;6.406;2023-04-25T13:58:48;20.10;47.80
66598;DHT22;57424;53.128;6.406;2023-04-25T14:01:15;20.10;47.90
66598;DHT22;57424;53.128;6.406;2023-04-25T14:03:40;20.10;47.90
66598;DHT22;57424;53.128;6.406;2023-04-25T14:06:06;20.10;48.00
66598;DHT22;57424;53.128;6.406;2023-04-25T14:08:34;20.00;48.00
66598;DHT22;57424;53.128;6.406;2023-04-25T14:10:59;20.00;48.00
66598;DHT22;57424;53.128;6.406;2023-04-25T14:13:26;20.00;48.00
66598;DHT22;57424;53.128;6.406;2023-04-25T14:15:52;19.90;48.00
66598;DHT22;57424;53.128;6.406;2023-04-25T14:18:18;19.90;48.00
66598;DHT22;57424;53.128;6.406;2023-04-25T14:20:44;19.90;48.00
66598;DHT22;57424;53.128;6.406;2023-04-25T14:23:10;19.90;48.10
66598;DHT22;57424;53.128;6.406;2023-04-25T14:25:35;19.90;48.00
66598;DHT22;57424;53.128;6.406;2023-04-25T14:28:01;19.90;48.00
66598;DHT22;57424;53.128;6.406;2023-04-25T14:30:27;19.80;48.00
66598;DHT22;57424;53.128;6.406;2023-04-25T14:32:53;19.80;48.00
66598;DHT22;57424;53.128;6.406;2023-04-25T14:35:19;19.80;48.00
66598;DHT22;57424;53.128;6.406;2023-04-25T14:37:45;19.80;48.00
66598;DHT22;57424;53.128;6.406;2023-04-25T14:40:11;19.80;47.90
66598;DHT22;57424;53.128;6.406;2023-04-25T14:42:41;19.80;48.00
66598;DHT22;57424;53.128;6.406;2023-04-25T14:45:07;19.80;48.00
66598;DHT22;57424;53.128;6.406;2023-04-25T14:47:34;19.70;48.00
66598;DHT22;57424;53.128;6.406;2023-04-25T14:50:00;19.70;48.00
66598;DHT22;57424;53.128;6.406;2023-04-25T14:52:26;19.70;48.00
66598;DHT22;57424;53.128;6.406;2023-04-25T14:54:52;19.70;48.00
66598;DHT22;57424;53.128;6.406;2023-04-25T14:57:18;19.60;48.00
66598;DHT22;57424;53.128;6.406;2023-04-25T14:59:44;19.60;48.00
66598;DHT22;57424;53.128;6.406;2023-04-25T15:02:10;19.60;48.00
66598;DHT22;57424;53.128;6.406;2023-04-25T15:04:36;19.60;47.90
66598;DHT22;57424;53.128;6.406;2023-04-25T15:07:02;19.60;48.60
66598;DHT22;57424;53.128;6.406;2023-04-25T15:09:28;19.60;47.90
66598;DHT22;57424;53.128;6.406;2023-04-25T15:11:53;19.60;48.00
66598;DHT22;57424;53.128;6.406;2023-04-25T15:14:19;19.60;48.00
66598;DHT22;57424;53.128;6.406;2023-04-25T15:16:44;19.50;48.00
66598;DHT22;57424;53.128;6.406;2023-04-25T15:19:10;19.60;48.10
66598;DHT22;57424;53.128;6.406;2023-04-25T15:21:36;19.50;48.00
66598;DHT22;57424;53.128;6.406;2023-04-25T15:24:02;19.50;48.00
66598;DHT22;57424;53.128;6.406;2023-04-25T15:26:28;19.50;48.00
66598;DHT22;57424;53.128;6.406;2023-04-25T15:28:53;19.50;48.00
66598;DHT22;57424;53.128;6.406;2023-04-25T15:31:19;19.50;48.10
66598;DHT22;57424;53.128;6.406;2023-04-25T15:33:45;19.50;48.10